createdAt,value
2023-07-03T00:02:26.036Z,97004.16
2023-07-03T00:04:53.457Z,96993.31
2023-07-03T00:07:20.528Z,97001.44
2023-07-03T00:09:47.532Z,96999.50
2023-07-03T00:12:14.084Z,96997.31
2023-07-03T00:14:40.655Z,96994.59
2023-07-03T00:17:11.725Z,96997.56
2023-07-03T00:19:38.261Z,96996.03
2023-07-03T00:22:05.159Z,96999.84
2023-07-03T00:24:32.729Z,96995.25
2023-07-03T00:26:59.823Z,97000.97
2023-07-03T00:29:30.432Z,97000.38
2023-07-03T00:31:57.108Z,96998.19
2023-07-03T00:34:24.022Z,97003.66
2023-07-03T00:36:50.577Z,97005.00
2023-07-03T00:39:17.798Z,97006.63
2023-07-03T00:41:44.598Z,97007.22
2023-07-03T00:44:14.115Z,97002.31
2023-07-03T00:46:43.183Z,97004.75
2023-07-03T00:49:11.049Z,97000.97
2023-07-03T00:51:41.420Z,96998.50
2023-07-03T00:54:07.960Z,96991.44
2023-07-03T00:56:34.442Z,96991.13
2023-07-03T00:59:02.546Z,96991.16
2023-07-03T01:01:36.525Z,96990.03
2023-07-03T01:04:16.259Z,96990.00
2023-07-03T01:06:55.375Z,96990.56
2023-07-03T01:09:25.616Z,96992.75
2023-07-03T01:11:52.721Z,96990.00
2023-07-03T01:14:21.868Z,96997.84
2023-07-03T01:16:50.219Z,96984.75
2023-07-03T01:19:30.264Z,96988.56
2023-07-03T01:22:02.645Z,96993.44
2023-07-03T01:24:33.092Z,96994.44
2023-07-03T01:27:04.793Z,96986.00
2023-07-03T01:29:34.031Z,96986.19
2023-07-03T01:32:04.356Z,96983.63
2023-07-03T01:34:33.800Z,96993.59
2023-07-03T01:37:02.241Z,96994.41
2023-07-03T01:39:28.938Z,96987.59
2023-07-03T01:41:56.220Z,96985.44
2023-07-03T01:44:22.799Z,96985.41
2023-07-03T01:46:49.316Z,96977.81
2023-07-03T01:49:17.074Z,96982.31
2023-07-03T01:52:04.164Z,96980.84
2023-07-03T01:54:40.804Z,96978.75
2023-07-03T01:57:08.489Z,96977.41
2023-07-03T01:59:35.469Z,96983.72
2023-07-03T02:02:08.666Z,96979.78
2023-07-03T02:04:42.143Z,96980.22
2023-07-03T02:07:10.367Z,96974.94
2023-07-03T02:09:37.862Z,96975.22
2023-07-03T02:12:08.245Z,96974.53
2023-07-03T02:14:36.948Z,96971.44
2023-07-03T02:17:04.824Z,96976.84
2023-07-03T02:19:32.839Z,96974.34
2023-07-03T02:22:00.441Z,96966.59
2023-07-03T02:24:27.880Z,96970.63
2023-07-03T02:26:54.744Z,96979.72
2023-07-03T02:29:21.360Z,96976.25
2023-07-03T02:31:47.904Z,96975.16
2023-07-03T02:34:15.789Z,96971.56
2023-07-03T02:36:42.580Z,96972.81
2023-07-03T02:39:10.454Z,96974.91
2023-07-03T02:41:37.056Z,96975.38
2023-07-03T02:44:03.992Z,96969.75
2023-07-03T02:46:32.393Z,96967.19
2023-07-03T02:48:59.169Z,96969.28
2023-07-03T02:51:25.801Z,96966.22
2023-07-03T02:53:55.723Z,96970.53
2023-07-03T02:56:22.324Z,96962.06
2023-07-03T02:58:49.032Z,96957.00
2023-07-03T03:01:21.190Z,96961.78
2023-07-03T03:03:48.622Z,96967.09
2023-07-03T03:06:15.348Z,96967.69
2023-07-03T03:08:41.883Z,96960.31
2023-07-03T03:11:08.885Z,96955.97
2023-07-03T03:13:35.541Z,96958.03
2023-07-03T03:16:02.153Z,96960.41
2023-07-03T03:18:28.794Z,96959.50
2023-07-03T03:20:55.325Z,96963.53
2023-07-03T03:23:21.965Z,96956.72
2023-07-03T03:25:48.690Z,96952.13
2023-07-03T03:28:15.534Z,96955.06
2023-07-03T03:30:42.243Z,96954.19
2023-07-03T03:33:08.878Z,96952.56
2023-07-03T03:35:35.523Z,96950.56
2023-07-03T03:38:02.407Z,96953.91
2023-07-03T03:40:29.082Z,96953.38
2023-07-03T03:42:55.582Z,96953.63
2023-07-03T03:45:22.127Z,96956.25
2023-07-03T03:47:49.447Z,96951.59
2023-07-03T03:50:16.996Z,96954.28
2023-07-03T03:52:43.600Z,96962.88
2023-07-03T03:55:10.263Z,96962.88
2023-07-03T03:57:36.967Z,96956.75
2023-07-03T04:00:05.151Z,96958.63
2023-07-03T04:02:39.092Z,96959.56
2023-07-03T04:05:06.423Z,96965.59
2023-07-03T04:07:33.062Z,96966.50
2023-07-03T04:09:59.552Z,96960.13
2023-07-03T04:12:26.086Z,96961.03
2023-07-03T04:14:52.694Z,96961.03
2023-07-03T04:17:19.205Z,96965.03
2023-07-03T04:19:45.684Z,96959.34
2023-07-03T04:22:12.224Z,96964.44
2023-07-03T04:24:38.797Z,96965.66
2023-07-03T04:27:06.201Z,96965.22
2023-07-03T04:29:32.661Z,96967.53
2023-07-03T04:31:59.224Z,96973.94
2023-07-03T04:34:25.751Z,96980.50
2023-07-03T04:36:52.239Z,96984.97
2023-07-03T04:39:18.699Z,96979.50
2023-07-03T04:41:45.384Z,96986.00
2023-07-03T04:44:13.648Z,96986.13
2023-07-03T04:46:41.007Z,96995.75
2023-07-03T04:49:08.775Z,96993.25
2023-07-03T04:51:35.345Z,97000.75
2023-07-03T04:54:02.220Z,96987.78
2023-07-03T04:56:29.962Z,96990.72
2023-07-03T04:58:56.537Z,97000.16
2023-07-03T05:01:25.227Z,96996.09
2023-07-03T05:03:51.923Z,96998.31
2023-07-03T05:06:18.483Z,96999.84
2023-07-03T05:08:47.639Z,97000.28
2023-07-03T05:11:14.119Z,96999.44
2023-07-03T05:13:40.591Z,96997.84
2023-07-03T05:16:07.215Z,96998.84
2023-07-03T05:18:33.768Z,97008.97
2023-07-03T05:21:00.339Z,97005.13
2023-07-03T05:23:26.880Z,97005.03
2023-07-03T05:25:53.670Z,97008.06
2023-07-03T05:28:20.372Z,97007.66
2023-07-03T05:30:54.497Z,97011.94
2023-07-03T05:33:20.947Z,97020.94
2023-07-03T05:35:50.992Z,97013.31
2023-07-03T05:38:19.865Z,97012.91
2023-07-03T05:40:47.277Z,97015.63
2023-07-03T05:43:14.739Z,97014.63
2023-07-03T05:45:41.870Z,97016.75
2023-07-03T05:48:08.775Z,97019.97
2023-07-03T05:50:35.377Z,97022.22
2023-07-03T05:53:01.872Z,97021.63
2023-07-03T05:55:28.310Z,97019.25
2023-07-03T05:57:54.926Z,97024.84
2023-07-03T06:00:23.046Z,97018.03
2023-07-03T06:02:53.089Z,97017.03
2023-07-03T06:05:21.257Z,97030.59
2023-07-03T06:07:48.367Z,97031.16
2023-07-03T06:10:14.920Z,97030.88
2023-07-03T06:12:42.628Z,97026.47
2023-07-03T06:15:10.392Z,97031.94
2023-07-03T06:17:41.871Z,97037.31
2023-07-03T06:20:09.149Z,97031.81
2023-07-03T06:22:35.678Z,97045.66
2023-07-03T06:25:02.200Z,97046.47
2023-07-03T06:27:28.708Z,97048.78
2023-07-03T06:29:55.187Z,97044.16
2023-07-03T06:32:21.718Z,97051.47
2023-07-03T06:34:48.251Z,97053.81
2023-07-03T06:37:14.999Z,97060.34
2023-07-03T06:39:41.827Z,97066.75
2023-07-03T06:42:10.590Z,97069.53
2023-07-03T06:44:41.796Z,97069.78
2023-07-03T06:47:08.357Z,97063.56
2023-07-03T06:49:36.067Z,97057.50
2023-07-03T06:52:02.814Z,97066.78
2023-07-03T06:54:29.354Z,97070.28
2023-07-03T06:56:55.938Z,97074.50
2023-07-03T06:59:22.510Z,97070.38
2023-07-03T07:01:49.012Z,97064.53
2023-07-03T07:04:16.214Z,97065.28
2023-07-03T07:06:42.884Z,97077.84
2023-07-03T07:09:09.394Z,97068.53
2023-07-03T07:11:36.876Z,97063.97
2023-07-03T07:14:05.634Z,97071.28
2023-07-03T07:16:35.600Z,97067.09
2023-07-03T07:19:05.092Z,97068.56
2023-07-03T07:21:33.824Z,97075.06
2023-07-03T07:24:12.332Z,97079.09
2023-07-03T07:26:39.041Z,97077.19
2023-07-03T07:29:05.566Z,97079.44
2023-07-03T07:31:32.528Z,97075.94
2023-07-03T07:33:59.152Z,97089.66
2023-07-03T07:36:27.507Z,97076.19
2023-07-03T07:38:56.701Z,97084.88
2023-07-03T07:41:25.961Z,97087.47
2023-07-03T07:43:53.512Z,97096.75
2023-07-03T07:46:20.451Z,97083.19
2023-07-03T07:48:50.164Z,97089.31
2023-07-03T07:51:16.722Z,97092.63
2023-07-03T07:53:43.222Z,97096.69
2023-07-03T07:56:11.390Z,97091.06
2023-07-03T07:58:38.885Z,97092.16
2023-07-03T08:01:06.707Z,97094.50
2023-07-03T08:03:33.521Z,97101.44
2023-07-03T08:06:05.708Z,97098.03
2023-07-03T08:08:33.558Z,97099.94
2023-07-03T08:11:01.943Z,97104.16
2023-07-03T08:13:31.320Z,97102.38
2023-07-03T08:15:58.414Z,97104.84
2023-07-03T08:18:25.966Z,97102.69
2023-07-03T08:20:53.646Z,97105.84
2023-07-03T08:23:20.722Z,97100.63
2023-07-03T08:25:55.137Z,97109.91
2023-07-03T08:28:23.196Z,97102.41
2023-07-03T08:30:49.721Z,97106.03
2023-07-03T08:33:16.653Z,97110.97
2023-07-03T08:38:13.302Z,97094.38
2023-07-03T08:40:39.978Z,97108.34
2023-07-03T08:43:10.887Z,97098.50
2023-07-03T08:45:41.346Z,97098.47
2023-07-03T08:48:15.838Z,97110.16
2023-07-03T08:50:48.233Z,97103.16
2023-07-03T08:53:19.609Z,97105.91
2023-07-03T08:55:52.691Z,97097.34
2023-07-03T08:58:19.427Z,97096.34
2023-07-03T09:01:09.979Z,97092.69
2023-07-03T09:03:53.549Z,97101.78
2023-07-03T09:06:26.542Z,97101.97
2023-07-03T09:09:14.105Z,97087.66
2023-07-03T09:11:45.870Z,97113.34
2023-07-03T09:14:21.478Z,97086.72
2023-07-03T09:16:48.662Z,97092.38
2023-07-03T09:19:26.342Z,97086.03
2023-07-03T09:21:57.548Z,97090.78
2023-07-03T09:24:30.518Z,97087.31
2023-07-03T09:27:06.463Z,97092.34
2023-07-03T09:29:35.809Z,97084.06
2023-07-03T09:32:02.469Z,97078.28
2023-07-03T09:35:09.964Z,97079.53
2023-07-03T09:37:41.869Z,97084.03
2023-07-03T09:40:15.573Z,97094.28
2023-07-03T09:42:43.049Z,97097.44
2023-07-03T09:45:23.678Z,97086.13
2023-07-03T09:48:01.698Z,97090.19
2023-07-03T09:50:32.531Z,97101.69
2023-07-03T09:53:08.373Z,97091.16
2023-07-03T09:55:36.575Z,97100.63
2023-07-03T09:58:12.089Z,97102.25
2023-07-03T10:00:51.452Z,97108.97
2023-07-03T10:12:00.800Z,97122.66
2023-07-03T10:14:40.365Z,97118.50
2023-07-03T10:17:13.645Z,97115.75
2023-07-03T10:19:46.969Z,97124.50
2023-07-03T10:22:15.322Z,97119.00
2023-07-03T10:24:43.886Z,97123.03
2023-07-03T10:27:10.442Z,97115.56
2023-07-03T10:29:42.909Z,97118.47
2023-07-03T10:32:15.572Z,97134.31
2023-07-03T10:34:49.802Z,97129.47
2023-07-03T10:37:19.955Z,97124.31
2023-07-03T10:39:54.243Z,97125.47
2023-07-03T10:42:45.231Z,97130.53
2023-07-03T10:45:15.880Z,97139.38
2023-07-03T10:47:55.303Z,97131.44
2023-07-03T10:53:51.737Z,97141.84
2023-07-03T10:56:29.648Z,97139.19
2023-07-03T10:59:06.758Z,97141.53
2023-07-03T11:01:49.775Z,97132.41
2023-07-03T11:04:44.444Z,97137.94
2023-07-03T11:07:31.433Z,97132.41
2023-07-03T11:10:07.355Z,97133.25
2023-07-03T11:12:42.655Z,97132.22
2023-07-03T11:15:33.857Z,97133.78
2023-07-03T11:23:48.208Z,97152.38
2023-07-03T11:28:58.339Z,97160.00
2023-07-03T11:31:26.842Z,97158.94
2023-07-03T11:37:03.232Z,97165.56
2023-07-03T11:44:39.157Z,97153.22
2023-07-03T11:47:08.552Z,97158.41
2023-07-03T11:49:50.433Z,97168.53
2023-07-03T11:52:24.734Z,97157.25
2023-07-03T11:55:11.541Z,97153.56
2023-07-03T11:57:41.186Z,97149.72
2023-07-03T12:00:18.064Z,97150.88
2023-07-03T12:03:39.914Z,97142.53
2023-07-03T12:06:06.303Z,97138.88
2023-07-03T12:08:40.494Z,97141.03
2023-07-03T12:11:08.163Z,97142.31
2023-07-03T12:13:41.214Z,97135.75
2023-07-03T12:16:17.677Z,97143.09
2023-07-03T12:18:44.323Z,97134.63
2023-07-03T12:21:11.800Z,97137.44
2023-07-03T12:23:43.436Z,97128.81
2023-07-03T12:26:12.354Z,97125.47
2023-07-03T12:28:39.664Z,97126.44
2023-07-03T12:31:11.977Z,97122.59
2023-07-03T12:33:51.425Z,97131.03
2023-07-03T12:36:35.030Z,97120.03
2023-07-03T12:39:14.435Z,97131.03
2023-07-03T12:41:41.368Z,97127.25
2023-07-03T12:44:10.020Z,97122.41
2023-07-03T12:46:39.614Z,97124.81
2023-07-03T12:49:12.570Z,97140.81
2023-07-03T12:51:40.182Z,97128.66
2023-07-03T12:54:09.021Z,97129.72
2023-07-03T12:56:37.036Z,97127.81
2023-07-03T12:59:03.771Z,97115.66
2023-07-03T13:01:32.411Z,97114.47
2023-07-03T13:03:59.033Z,97113.91
2023-07-03T13:06:30.367Z,97106.41
2023-07-03T13:08:58.609Z,97110.16
2023-07-03T13:11:40.586Z,97100.59
2023-07-03T13:14:13.063Z,97105.47
2023-07-03T13:16:41.614Z,97107.50
2023-07-03T13:19:08.235Z,97097.44
2023-07-03T13:21:36.609Z,97111.63
2023-07-03T13:24:16.096Z,97100.84
2023-07-03T13:26:48.400Z,97104.00
2023-07-03T13:29:15.964Z,97102.84
2023-07-03T13:31:52.100Z,97098.72
2023-07-03T13:34:23.912Z,97093.19
2023-07-03T13:37:04.932Z,97095.84
2023-07-03T13:39:33.810Z,97101.13
2023-07-03T13:42:00.748Z,97108.13
2023-07-03T13:44:27.686Z,97103.63
2023-07-03T13:46:55.565Z,97117.31
2023-07-03T13:49:22.260Z,97114.28
2023-07-03T13:51:51.345Z,97103.56
2023-07-03T13:54:18.805Z,97107.09
2023-07-03T13:56:45.384Z,97096.28
2023-07-03T13:59:12.603Z,97091.38
2023-07-03T14:01:40.973Z,97086.50
2023-07-03T14:04:08.212Z,97092.59
2023-07-03T14:06:35.024Z,97084.31
2023-07-03T14:09:01.923Z,97082.06
2023-07-03T14:11:28.642Z,97075.28
2023-07-03T14:13:56.491Z,97073.94
2023-07-03T14:16:23.436Z,97074.09
2023-07-03T14:18:50.075Z,97080.84
2023-07-03T14:21:18.210Z,97073.38
2023-07-03T14:23:45.578Z,97070.97
2023-07-03T14:26:13.555Z,97072.59
2023-07-03T14:28:40.616Z,97067.31
2023-07-03T14:31:09.123Z,97062.59
2023-07-03T14:33:36.008Z,97077.78
2023-07-03T14:36:02.714Z,97069.22
2023-07-03T14:38:29.292Z,97075.09
2023-07-03T14:40:57.594Z,97073.41
2023-07-03T14:43:24.158Z,97076.50
2023-07-03T14:45:50.952Z,97075.56
2023-07-03T14:48:17.787Z,97084.56
2023-07-03T14:50:44.346Z,97076.91
2023-07-03T14:53:10.805Z,97079.63
2023-07-03T14:55:37.393Z,97071.97
2023-07-03T14:58:04.017Z,97075.25
2023-07-03T15:00:30.548Z,97068.41
2023-07-03T15:02:57.261Z,97069.91
2023-07-03T15:05:23.982Z,97069.44
2023-07-03T15:07:53.118Z,97069.66
2023-07-03T15:10:20.121Z,97058.22
2023-07-03T15:12:47.066Z,97050.69
2023-07-03T15:15:14.024Z,97051.13
2023-07-03T15:17:41.056Z,97049.13
2023-07-03T15:20:09.097Z,97045.50
2023-07-03T15:22:35.965Z,97051.41
2023-07-03T15:25:02.930Z,97041.41
2023-07-03T15:27:29.545Z,97029.72
2023-07-03T15:29:56.062Z,97039.25
2023-07-03T15:32:22.696Z,97038.00
2023-07-03T15:34:52.404Z,97019.47
2023-07-03T15:37:18.931Z,97020.50
2023-07-03T15:39:45.471Z,97024.22
2023-07-03T15:42:11.986Z,97014.41
2023-07-03T15:44:38.498Z,97008.75
2023-07-03T15:47:08.825Z,97011.44
2023-07-03T15:49:39.031Z,97001.50
2023-07-03T15:52:06.159Z,96989.59
2023-07-03T15:54:35.790Z,96995.06
2023-07-03T15:57:04.132Z,96997.06
2023-07-03T15:59:31.028Z,97002.66
2023-07-03T16:01:58.250Z,97001.53
2023-07-03T16:04:24.988Z,97002.09
2023-07-03T16:06:51.575Z,97003.44
2023-07-03T16:09:18.092Z,96994.31
2023-07-03T16:11:44.676Z,96999.50
2023-07-03T16:14:11.288Z,97005.69
2023-07-03T16:16:37.763Z,97003.72
2023-07-03T16:19:04.645Z,96999.38
2023-07-03T16:21:32.364Z,97003.69
2023-07-03T16:23:59.211Z,97001.19
2023-07-03T16:26:27.566Z,97003.22
2023-07-03T16:28:55.009Z,97005.31
2023-07-03T16:31:23.641Z,97006.16
2023-07-03T16:33:52.428Z,96999.78
2023-07-03T16:36:22.482Z,97000.59
2023-07-03T16:38:54.058Z,97005.78
2023-07-03T16:41:21.885Z,97006.59
2023-07-03T16:43:50.352Z,97002.94
2023-07-03T16:46:19.889Z,96995.09
2023-07-03T16:48:48.182Z,96991.28
2023-07-03T16:51:15.287Z,96988.84
2023-07-03T16:53:42.843Z,96999.09
2023-07-03T16:56:14.778Z,97003.97
2023-07-03T16:58:43.134Z,97002.91
2023-07-03T17:01:21.156Z,97006.13
2023-07-03T17:03:49.763Z,97005.66
2023-07-03T17:06:26.136Z,97007.31
2023-07-03T17:08:54.000Z,97003.75
2023-07-03T17:11:20.507Z,97015.06
2023-07-03T17:13:48.692Z,97008.75
2023-07-03T17:16:15.961Z,97002.75
2023-07-03T17:18:43.497Z,97006.16
2023-07-03T17:21:10.016Z,97000.38
2023-07-03T17:23:36.550Z,96993.63
2023-07-03T17:26:04.164Z,96994.09
2023-07-03T17:28:30.746Z,96990.75
2023-07-03T17:30:57.335Z,96989.56
2023-07-03T17:33:23.819Z,96984.09
2023-07-03T17:35:50.671Z,96980.41
2023-07-03T17:38:17.853Z,96985.13
2023-07-03T17:40:47.232Z,96977.25
2023-07-03T17:43:18.349Z,96989.66
2023-07-03T17:45:45.840Z,96980.84
2023-07-03T17:48:12.509Z,96984.59
2023-07-03T17:50:40.123Z,96980.94
2023-07-03T17:53:07.456Z,96999.59
2023-07-03T17:55:33.936Z,96995.06
2023-07-03T17:58:01.082Z,96999.44
2023-07-03T18:00:27.683Z,96994.50
2023-07-03T18:02:54.245Z,97001.63
2023-07-03T18:05:21.473Z,97006.69
2023-07-03T18:07:48.485Z,97008.19
2023-07-03T18:10:15.074Z,97009.09
2023-07-03T18:12:41.605Z,97014.69
2023-07-03T18:15:08.648Z,97008.94
2023-07-03T18:17:35.138Z,97012.88
2023-07-03T18:20:04.849Z,97016.59
2023-07-03T18:22:32.907Z,97015.81
2023-07-03T18:25:02.668Z,97007.88
2023-07-03T18:27:29.633Z,97006.59
2023-07-03T18:29:56.140Z,97013.50
2023-07-03T18:32:22.719Z,97013.28
2023-07-03T18:34:49.227Z,97011.84
2023-07-03T18:37:15.806Z,97018.84
2023-07-03T18:39:42.365Z,97020.13
2023-07-03T18:42:08.974Z,97019.31
2023-07-03T18:44:35.568Z,97021.75
2023-07-03T18:47:04.549Z,97024.19
2023-07-03T18:49:31.120Z,97027.13
2023-07-03T18:51:57.574Z,97024.69
2023-07-03T18:54:24.718Z,97026.66
2023-07-03T18:56:52.319Z,97028.25
2023-07-03T18:59:18.869Z,97030.72
2023-07-03T19:01:45.972Z,97034.59
2023-07-03T19:04:12.995Z,97034.41
2023-07-03T19:06:40.273Z,97029.91
2023-07-03T19:09:08.892Z,97038.13
2023-07-03T19:11:35.396Z,97038.13
2023-07-03T19:14:01.944Z,97037.16
2023-07-03T19:16:29.601Z,97035.38
2023-07-03T19:18:56.358Z,97036.97
2023-07-03T19:21:22.901Z,97040.22
2023-07-03T19:23:49.406Z,97032.94
2023-07-03T19:26:16.014Z,97038.78
2023-07-03T19:28:45.176Z,97036.59
2023-07-03T19:31:11.960Z,97038.88
2023-07-03T19:33:38.450Z,97040.88
2023-07-03T19:36:12.469Z,97039.41
2023-07-03T19:38:41.150Z,97044.09
2023-07-03T19:41:08.001Z,97044.09
2023-07-03T19:43:34.592Z,97046.78
2023-07-03T19:46:01.103Z,97056.91
2023-07-03T19:48:27.788Z,97060.66
2023-07-03T19:50:54.273Z,97055.00
2023-07-03T19:53:20.789Z,97066.09
2023-07-03T19:55:47.379Z,97069.19
2023-07-03T19:58:13.925Z,97073.44
2023-07-03T20:00:40.432Z,97082.25
2023-07-03T20:03:07.529Z,97080.38
2023-07-03T20:05:36.247Z,97075.88
2023-07-03T20:08:03.667Z,97064.13
2023-07-03T20:10:30.333Z,97058.31
2023-07-03T20:12:56.832Z,97073.19
2023-07-03T20:15:23.689Z,97075.63
2023-07-03T20:17:50.421Z,97074.44
2023-07-03T20:20:17.110Z,97080.66
2023-07-03T20:22:44.880Z,97080.66
2023-07-03T20:25:11.645Z,97073.50
2023-07-03T20:27:38.765Z,97062.84
2023-07-03T20:30:07.266Z,97066.72
2023-07-03T20:32:35.449Z,97068.34
2023-07-03T20:35:05.469Z,97078.31
2023-07-03T20:37:32.706Z,97071.66
2023-07-03T20:40:00.015Z,97072.47
2023-07-03T20:42:28.209Z,97068.34
2023-07-03T20:44:56.467Z,97067.34
2023-07-03T20:47:25.871Z,97071.31
2023-07-03T20:49:55.859Z,97069.13
2023-07-03T20:52:23.533Z,97064.69
2023-07-03T20:55:07.938Z,97078.09
2023-07-03T20:57:36.380Z,97071.91
2023-07-03T21:00:05.984Z,97077.50
2023-07-03T21:02:35.747Z,97068.56
2023-07-03T21:05:02.553Z,97068.78
2023-07-03T21:07:29.012Z,97075.28
2023-07-03T21:09:55.561Z,97072.91
2023-07-03T21:12:22.128Z,97070.09
2023-07-03T21:14:48.978Z,97070.22
2023-07-03T21:17:15.420Z,97068.28
2023-07-03T21:19:42.052Z,97061.81
2023-07-03T21:22:08.920Z,97066.69
2023-07-03T21:24:35.383Z,97069.13
2023-07-03T21:27:01.895Z,97065.78
2023-07-03T21:29:28.354Z,97065.69
2023-07-03T21:31:54.971Z,97070.25
2023-07-03T21:34:21.448Z,97067.81
2023-07-03T21:36:47.988Z,97077.03
2023-07-03T21:39:14.511Z,97084.47
2023-07-03T21:41:43.056Z,97078.06
2023-07-03T21:44:15.640Z,97076.56
2023-07-03T21:46:42.664Z,97078.09
2023-07-03T21:49:14.622Z,97091.84
2023-07-03T21:51:41.616Z,97091.38
2023-07-03T21:54:08.259Z,97096.84
2023-07-03T21:56:34.752Z,97105.16
2023-07-03T21:59:04.260Z,97103.50
2023-07-03T22:01:34.426Z,97101.69
2023-07-03T22:04:02.866Z,97103.03
2023-07-03T22:06:29.667Z,97099.88
2023-07-03T22:08:57.199Z,97101.81
2023-07-03T22:11:24.832Z,97096.22
2023-07-03T22:13:51.991Z,97094.69
2023-07-03T22:16:19.436Z,97091.84
2023-07-03T22:18:46.920Z,97087.09
2023-07-03T22:21:15.453Z,97093.69
2023-07-03T22:23:42.396Z,97088.03
2023-07-03T22:26:08.985Z,97087.94
2023-07-03T22:28:35.539Z,97089.47
2023-07-03T22:31:02.069Z,97087.63
2023-07-03T22:33:30.119Z,97081.66
2023-07-03T22:35:56.652Z,97078.78
2023-07-03T22:38:23.238Z,97088.63
2023-07-03T22:40:51.399Z,97086.06
2023-07-03T22:43:18.976Z,97083.91
2023-07-03T22:45:46.002Z,97084.75
2023-07-03T22:48:12.755Z,97084.34
2023-07-03T22:50:41.020Z,97083.63
2023-07-03T22:53:09.361Z,97089.97
2023-07-03T22:55:40.853Z,97086.59
2023-07-03T22:58:09.494Z,97089.44
2023-07-03T23:00:38.959Z,97085.44
2023-07-03T23:03:05.505Z,97086.28
2023-07-03T23:05:32.166Z,97087.69
2023-07-03T23:07:58.744Z,97080.16
2023-07-03T23:10:25.228Z,97087.44
2023-07-03T23:12:51.821Z,97094.84
2023-07-03T23:15:18.304Z,97093.66
2023-07-03T23:17:44.846Z,97095.34
2023-07-03T23:20:12.316Z,97092.22
2023-07-03T23:22:42.787Z,97099.56
2023-07-03T23:25:09.667Z,97090.06
2023-07-03T23:27:36.165Z,97089.53
2023-07-03T23:30:05.376Z,97091.97
2023-07-03T23:32:34.370Z,97096.56
2023-07-03T23:35:01.424Z,97096.97
2023-07-03T23:37:28.110Z,97101.94
2023-07-03T23:39:54.864Z,97096.19
2023-07-03T23:42:21.475Z,97096.56
2023-07-03T23:44:47.974Z,97100.41
2023-07-03T23:47:15.881Z,97110.25
2023-07-03T23:49:42.495Z,97106.97
2023-07-03T23:52:08.961Z,97104.09
2023-07-03T23:54:37.831Z,97113.88
2023-07-03T23:57:04.724Z,97108.66
2023-07-03T23:59:31.180Z,97100.91
